Flight Track Log - Related Links

Times and Time Zones

All times are in EDT time to prevent confusion due to time zone crossing. See the CTL14 flight status page for this flight to view local times or setup timezone preferences in your user account.

Time Position Orientation Groundspeed Altitude Reporting Facility
EDT Latitude Longitude Course Direction KTS MPH feet Rate Location/Type
Thu 09:08:08 PM 39.2833 -85.8667 38° Northeast 115 132 1,400  Level Indianapolis TRACON
Thu 09:09:08 PM 39.3000 -85.8500 38° Northeast 110 127 2,200 850 Climbing Indianapolis TRACON
Thu 09:10:08 PM 39.3333 -85.8167 38° Northeast 125 144 3,100 800 Climbing Indianapolis TRACON
Thu 09:11:08 PM 39.3667 -85.8333 339° North 151 174 3,800 450 Climbing Indianapolis TRACON
Thu 09:12:08 PM 39.3833 -85.8667 303° West 156 180 4,000 50 Climbing Indianapolis TRACON
Thu 09:13:08 PM 39.4000 -85.9167 293° West 181 208 3,900 150 Descending Indianapolis TRACON
Thu 09:14:08 PM 39.4333 -85.9833 303° West 174 200 4,300 550 Climbing Indianapolis TRACON
Thu 09:14:57 PM 39.4400 -86.0144 286° West 231 266 4,900 655 Climbing Indianapolis Center
Thu 09:15:58 PM 39.4586 -86.0556 300° West 142 163 5,500 488 Climbing Indianapolis Center
Thu 09:17:00 PM 39.4772 -86.1017 298° West 143 165 5,900 244 Climbing Indianapolis Center
Thu 09:18:01 PM 39.4964 -86.1531 296° West 146 168 6,000 49 Climbing Indianapolis Center
Thu 09:19:02 PM 39.5231 -86.2219 297° West 159 183 6,000  Level Indianapolis Center
Thu 09:20:03 PM 39.5453 -86.2806 296° West 168 193 6,000  Level Indianapolis Center
Thu 09:21:04 PM 39.5683 -86.3408 296° West 176 203 6,000  Level Indianapolis Center
Thu 09:22:06 PM 39.5886 -86.4006 294° West 179 206 6,000  Level Indianapolis Center
Thu 09:23:07 PM 39.6117 -86.4614 296° West 182 209 6,000  Level Indianapolis Center
Thu 09:24:08 PM 39.6347 -86.5244 295° West 186 214 6,000 49 Level Indianapolis Center
Thu 09:25:09 PM 39.6561 -86.5861 294° West 187 215 6,100  Climbing Indianapolis Center
Thu 09:26:10 PM 39.6761 -86.6456 294° West 185 213 6,000 -49 Descending Indianapolis Center
Thu 09:27:11 PM 39.6956 -86.7006 295° West 180 207 6,000  Level Indianapolis Center
Thu 09:28:13 PM 39.7150 -86.7481 298° West 169 194 6,000  Level Indianapolis Center
Thu 09:29:14 PM 39.7308 -86.7942 294° West 157 181 6,000  Level Indianapolis Center
Thu 09:30:15 PM 39.7444 -86.8369 292° West 145 167 6,000  Level Indianapolis Center
Thu 09:31:16 PM 39.7614 -86.8767 299° West 136 157 6,000 -49 Level Indianapolis Center
Thu 09:32:17 PM 39.7781 -86.9222 295° West 135 155 5,900  Descending Indianapolis Center
Thu 09:33:18 PM 39.7958 -86.9672 297° West 136 157 6,000 49 Climbing Indianapolis Center
Thu 09:34:20 PM 39.8147 -87.0186 296° West 135 155 6,000  Level Indianapolis Center
Thu 09:35:21 PM 39.8306 -87.0631 295° West 133 153 6,000 -49 Level Indianapolis Center
Thu 09:36:22 PM 39.8475 -87.1061 297° West 134 154 5,900  Descending Indianapolis Center
Thu 09:37:23 PM 39.8639 -87.1497 296° West 134 154 6,000 98 Climbing Indianapolis Center
Thu 09:38:24 PM 39.8794 -87.1958 294° West 134 154 6,100  Climbing Indianapolis Center
Thu 09:39:25 PM 39.8950 -87.2417 294° West 137 158 6,000 -49 Descending Indianapolis Center
Thu 09:40:27 PM 39.9122 -87.2903 295° West 140 161 6,000 -49 Level Indianapolis Center
Thu 09:41:28 PM 39.9311 -87.3328 300° West 140 161 5,900 -49 Descending Indianapolis Center
Thu 09:42:29 PM 39.9519 -87.3914 295° West 142 163 5,900 61 Level Indianapolis Center
Thu 09:44:45 PM 39.9900 -87.5036 294° West 150 173 6,100 61 Climbing Chicago Center
Thu 09:45:47 PM 40.0072 -87.5522 295° West 148 170 6,100  Level Chicago Center
Thu 09:46:49 PM 40.0261 -87.6031 296° West 151 174 6,100  Level Chicago Center
Thu 09:47:51 PM 40.0439 -87.6533 295° West 152 175 6,100  Level Chicago Center
Thu 09:48:53 PM 40.0611 -87.7044 294° West 153 176 6,100  Level Chicago Center
Thu 09:49:55 PM 40.0792 -87.7553 295° West 154 177 6,100  Level Chicago Center
Thu 09:50:57 PM 40.1019 -87.8169 296° West 156 180 6,100  Level Chicago Center
Thu 09:51:58 PM 40.1150 -87.8683 288° West 153 176 6,100 49 Level Chicago Center
Thu 09:53:00 PM 40.1342 -87.9189 296° West 158 182 6,200 -145 Climbing Chicago Center
Thu 09:54:02 PM 40.1522 -87.9706 295° West 157 181 5,800 -629 Descending Chicago Center
Thu 09:55:04 PM 40.1739 -88.0264 297° West 161 185 4,900 -726 Descending Chicago Center
Thu 09:56:06 PM 40.1950 -88.0844 295° West 168 193 4,300 -390 Descending Chicago Center
Thu 09:57:07 PM 40.2147 -88.1517 291° West 169 194 4,100 -98 Descending Chicago Center
Thu 09:58:09 PM 40.2278 -88.1997 290° West 159 183 4,100  Level Chicago Center
Thu 09:59:11 PM 40.2428 -88.2442 294° West 148 170 4,100  Level Chicago Center
Thu 10:00:13 PM 40.2600 -88.2897 296° West 141 162 4,100  Level Chicago Center
Thu 10:01:14 PM 40.2744 -88.3361 292° West 139 160 4,100 -49 Level Chicago Center
Thu 10:02:16 PM 40.2897 -88.3839 293° West 140 161 4,000  Descending Chicago Center
Thu 10:03:18 PM 40.3094 -88.4383 295° West 140 161 4,100 98 Climbing Chicago Center
Thu 10:04:19 PM 40.3236 -88.4875 291° West 141 162 4,200  Climbing Chicago Center
Thu 10:05:21 PM 40.3397 -88.5406 292° West 147 169 4,100 -49 Descending Chicago Center
Thu 10:06:22 PM 40.3608 -88.5872 301° West 148 170 4,100  Level Chicago Center
Thu 10:07:24 PM 40.3869 -88.6308 308° West 149 171 4,100 -146 Level Chicago Center
Thu 10:08:25 PM 40.4108 -88.6781 304° West 152 175 3,800 -244 Descending Chicago Center
Thu 10:09:27 PM 40.4319 -88.7247 301° West 150 173 3,600 -242 Descending Chicago Center
Thu 10:10:29 PM 40.4428 -88.7714 287° West 137 158 3,300 -439 Descending Chicago Center
Thu 10:11:30 PM 40.4536 -88.8183 287° West 135 155 2,700 -780 Descending Chicago Center
Thu 10:12:32 PM 40.4672 -88.8628 292° West 119 137 1,700 -585 Descending Chicago Center
Thu 10:13:33 PM 40.4725 -88.8878 286° West 107 123 1,500 -197 Descending Chicago Center
Thu 10:15:00 PM 40.4667 -88.9000 303° West  Level FlightAware Approximate
Thu 10:22:00 PM 40.4771 -88.9159 303° West  Level Estimated
Thu 10:23:00 PM 40.4771 -88.9159 303° West  Level Estimated

Login

Don't have an account? Register now (free) for customized features, flight alerts, and more!